PWSweather.com
Personal Weather Stations
Station Observations
NYERIN
South Erin, Erin, NY 14838-9545

South ErinErin, NY 14838-9545

Lat: 42.150605, Lon: -76.654038

Elevation: 1663

Station Type: Davis VP Pro II

http://southerin-ny.org/wx.php

Latest ConditionsUpdated 11:42:00 AM EST Monday, Jan 23, 2017
Currently Today's Max Today's Min Today's Average
Temperature 38.0°F3.3°C 46.8°F8.2°C 36.8°F2.7°C 40.7°F4.8°C
Dew Point 34.8°F1.6°C 46.8°F8.2°C 34.8°F1.6°C 39.9°F4.4°C
Winds 2.3 mph SE3.7 kmh SE 8.1 mph SSE13.0 kmh SSE - 4.0 mph 6.4 kmh
Wind Gusts 4.6 mph7.4 kmh 19.6 mph31.5 kmh - -
Humidity 88% 100% 88% 97%
Pressure 29.72 in1006.4 mb 29.77 in1008.1 mb 29.70 in1005.8 mb -
Hour Temp Dew Point Humidity Winds Wind Gusts Pressure Precip Precip Rate Daily Precip Total
11:42 AM 38.0°F3.3°C 34.8°F1.6°C 88% 2.3 mph SE3.7 kmh SE 4.6 mph7.4 kmh 29.72 in1006.4 mb - 0.00 in0.0 mm 0.00 in0.0 mm
11:32 AM 37.9°F3.3°C 35.0°F1.7°C 89% 5.8 mph E9.3 kmh E 8.1 mph13.0 kmh 29.73 in1006.8 mb - 0.00 in0.0 mm 0.00 in0.0 mm
11:22 AM 37.8°F3.2°C 35.1°F1.7°C 90% 2.3 mph ESE3.7 kmh ESE 4.6 mph7.4 kmh 29.74 in1007.1 mb - 0.00 in0.0 mm 0.00 in0.0 mm
11:12 AM 37.6°F3.1°C 34.9°F1.6°C 90% 3.5 mph E5.6 kmh E 8.1 mph13.0 kmh 29.75 in1007.5 mb - 0.00 in0.0 mm 0.00 in0.0 mm
11:02 AM 37.5°F3.1°C 34.8°F1.6°C 90% 3.5 mph E5.6 kmh E 8.1 mph13.0 kmh 29.75 in1007.5 mb - 0.00 in0.0 mm 0.00 in0.0 mm
10:52 AM 37.3°F2.9°C 34.9°F1.6°C 91% 3.5 mph SE5.6 kmh SE 8.1 mph13.0 kmh 29.75 in1007.5 mb - 0.00 in0.0 mm 0.00 in0.0 mm
10:42 AM 37.3°F2.9°C 34.9°F1.6°C 91% 2.3 mph ESE3.7 kmh ESE 4.6 mph7.4 kmh 29.75 in1007.5 mb - 0.00 in0.0 mm 0.00 in0.0 mm
10:32 AM 37.2°F2.9°C 35.1°F1.7°C 92% 4.6 mph ESE7.4 kmh ESE 11.5 mph18.5 kmh 29.75 in1007.5 mb - 0.00 in0.0 mm 0.00 in0.0 mm
10:02 AM 36.9°F2.7°C 35.6°F2.0°C 95% 2.3 mph E3.7 kmh E 2.3 mph3.7 kmh 29.75 in1007.5 mb - 0.00 in0.0 mm 0.00 in0.0 mm
09:52 AM 36.8°F2.7°C 35.5°F1.9°C 95% 2.3 mph ESE3.7 kmh ESE 9.2 mph14.8 kmh 29.76 in1007.8 mb - 0.00 in0.0 mm 0.00 in0.0 mm
09:42 AM 36.8°F2.7°C 35.5°F1.9°C 95% 1.2 mph SE1.9 kmh SE 1.2 mph1.9 kmh 29.76 in1007.8 mb - 0.00 in0.0 mm 0.00 in0.0 mm
09:32 AM 36.8°F2.7°C 35.8°F2.1°C 96% 5.8 mph SE9.3 kmh SE 9.2 mph14.8 kmh 29.77 in1008.1 mb - 0.00 in0.0 mm 0.00 in0.0 mm
09:22 AM 36.8°F2.7°C 35.8°F2.1°C 96% 6.9 mph SSE11.1 kmh SSE 11.5 mph18.5 kmh 29.76 in1007.8 mb - 0.00 in0.0 mm 0.00 in0.0 mm
09:12 AM 36.9°F2.7°C 35.9°F2.2°C 96% 8.1 mph ESE13.0 kmh ESE 13.8 mph22.2 kmh 29.75 in1007.5 mb - 0.00 in0.0 mm 0.00 in0.0 mm
09:02 AM 36.9°F2.7°C 35.9°F2.2°C 96% 4.6 mph ESE7.4 kmh ESE 6.9 mph11.1 kmh 29.75 in1007.5 mb - 0.00 in0.0 mm 0.00 in0.0 mm
08:52 AM 36.9°F2.7°C 35.9°F2.2°C 96% 2.3 mph ESE3.7 kmh ESE 6.9 mph11.1 kmh 29.75 in1007.5 mb - 0.00 in0.0 mm 0.00 in0.0 mm
08:42 AM 36.9°F2.7°C 35.9°F2.2°C 96% 3.5 mph SSE5.6 kmh SSE 4.6 mph7.4 kmh 29.74 in1007.1 mb - 0.00 in0.0 mm 0.00 in0.0 mm
08:32 AM 36.9°F2.7°C 35.9°F2.2°C 96% 2.3 mph ENE3.7 kmh ENE 2.3 mph3.7 kmh 29.73 in1006.8 mb - 0.00 in0.0 mm 0.00 in0.0 mm
08:22 AM 36.9°F2.7°C 35.9°F2.2°C 96% 5.8 mph SE9.3 kmh SE 11.5 mph18.5 kmh 29.73 in1006.8 mb - 0.00 in0.0 mm 0.00 in0.0 mm
08:12 AM 36.9°F2.7°C 35.9°F2.2°C 96% 4.6 mph E7.4 kmh E 9.2 mph14.8 kmh 29.73 in1006.8 mb - 0.00 in0.0 mm 0.00 in0.0 mm
08:02 AM 37.0°F2.8°C 36.0°F2.2°C 96% 3.5 mph ESE5.6 kmh ESE 12.7 mph20.4 kmh 29.73 in1006.8 mb - 0.00 in0.0 mm 0.00 in0.0 mm
07:52 AM 37.0°F2.8°C 36.0°F2.2°C 96% 3.5 mph E5.6 kmh E 2.3 mph3.7 kmh 29.72 in1006.4 mb - 0.00 in0.0 mm 0.00 in0.0 mm
07:42 AM 37.2°F2.9°C 36.2°F2.3°C 96% 4.6 mph ESE7.4 kmh ESE 9.2 mph14.8 kmh 29.72 in1006.4 mb - 0.00 in0.0 mm 0.00 in0.0 mm
07:32 AM 37.3°F2.9°C 36.3°F2.4°C 96% 2.3 mph SE3.7 kmh SE 11.5 mph18.5 kmh 29.73 in1006.8 mb - 0.00 in0.0 mm 0.00 in0.0 mm
07:22 AM 37.6°F3.1°C 36.8°F2.7°C 97% 4.6 mph E7.4 kmh E 13.8 mph22.2 kmh 29.75 in1007.5 mb - 0.00 in0.0 mm 0.00 in0.0 mm
07:12 AM 37.8°F3.2°C 37.0°F2.8°C 97% 4.6 mph SE7.4 kmh SE 10.4 mph16.7 kmh 29.75 in1007.5 mb - 0.00 in0.0 mm 0.00 in0.0 mm
07:02 AM 37.9°F3.3°C 37.1°F2.8°C 97% 3.5 mph ESE5.6 kmh ESE 5.8 mph9.3 kmh 29.75 in1007.5 mb - 0.00 in0.0 mm 0.00 in0.0 mm
06:52 AM 38.0°F3.3°C 37.2°F2.9°C 97% 2.3 mph SE3.7 kmh SE 2.3 mph3.7 kmh 29.74 in1007.1 mb - 0.00 in0.0 mm 0.00 in0.0 mm
06:42 AM 38.2°F3.4°C 37.2°F2.9°C 96% 4.6 mph E7.4 kmh E 10.4 mph16.7 kmh 29.73 in1006.8 mb - 0.00 in0.0 mm 0.00 in0.0 mm
06:32 AM 38.5°F3.6°C 37.7°F3.2°C 97% 6.9 mph E11.1 kmh E 12.7 mph20.4 kmh 29.73 in1006.8 mb - 0.00 in0.0 mm 0.00 in0.0 mm
06:22 AM 38.8°F3.8°C 38.0°F3.3°C 97% 2.3 mph E3.7 kmh E 5.8 mph9.3 kmh 29.73 in1006.8 mb - 0.00 in0.0 mm 0.00 in0.0 mm
06:12 AM 39.1°F3.9°C 38.4°F3.6°C 97% 2.3 mph E3.7 kmh E 1.2 mph1.9 kmh 29.74 in1007.1 mb - 0.00 in0.0 mm 0.00 in0.0 mm
06:02 AM 39.3°F4.1°C 38.5°F3.6°C 97% 4.6 mph E7.4 kmh E 8.1 mph13.0 kmh 29.74 in1007.1 mb - 0.00 in0.0 mm 0.00 in0.0 mm
05:52 AM 39.5°F4.2°C 38.7°F3.7°C 97% 3.5 mph SE5.6 kmh SE 3.5 mph5.6 kmh 29.74 in1007.1 mb - 0.00 in0.0 mm 0.00 in0.0 mm
05:42 AM 39.8°F4.3°C 39.0°F3.9°C 97% 5.8 mph SE9.3 kmh SE 8.1 mph13.0 kmh 29.73 in1006.8 mb - 0.00 in0.0 mm 0.00 in0.0 mm
05:32 AM 39.9°F4.4°C 39.1°F3.9°C 97% 3.5 mph SE5.6 kmh SE 6.9 mph11.1 kmh 29.73 in1006.8 mb - 0.00 in0.0 mm 0.00 in0.0 mm
05:22 AM 40.1°F4.5°C 39.3°F4.1°C 97% 4.6 mph SE7.4 kmh SE 4.6 mph7.4 kmh 29.73 in1006.8 mb - 0.00 in0.0 mm 0.00 in0.0 mm
05:12 AM 40.2°F4.6°C 39.4°F4.1°C 97% 2.3 mph SE3.7 kmh SE 3.5 mph5.6 kmh 29.73 in1006.8 mb - 0.00 in0.0 mm 0.00 in0.0 mm
05:02 AM 40.5°F4.7°C 40.0°F4.4°C 98% 3.5 mph SE5.6 kmh SE 8.1 mph13.0 kmh 29.73 in1006.8 mb - 0.00 in0.0 mm 0.00 in0.0 mm
04:52 AM 40.8°F4.9°C 40.2°F4.6°C 98% 8.1 mph SSE13.0 kmh SSE 13.8 mph22.2 kmh 29.73 in1006.8 mb - 0.00 in0.0 mm 0.00 in0.0 mm
04:42 AM 41.2°F5.1°C 40.9°F4.9°C 99% 5.8 mph SE9.3 kmh SE 10.4 mph16.7 kmh 29.73 in1006.8 mb - 0.00 in0.0 mm 0.00 in0.0 mm
04:32 AM 41.6°F5.3°C 41.3°F5.2°C 99% 5.8 mph ESE9.3 kmh ESE 19.6 mph31.5 kmh 29.73 in1006.8 mb - 0.00 in0.0 mm 0.00 in0.0 mm
04:22 AM 42.1°F5.6°C 41.8°F5.4°C 99% 5.8 mph E9.3 kmh E 8.1 mph13.0 kmh 29.73 in1006.8 mb - 0.00 in0.0 mm 0.00 in0.0 mm
04:12 AM 42.3°F5.7°C 42.0°F5.6°C 99% 3.5 mph ESE5.6 kmh ESE 6.9 mph11.1 kmh 29.73 in1006.8 mb - 0.00 in0.0 mm 0.00 in0.0 mm
04:02 AM 42.6°F5.9°C 42.3°F5.7°C 99% 4.6 mph SE7.4 kmh SE 8.1 mph13.0 kmh 29.72 in1006.4 mb - 0.00 in0.0 mm 0.00 in0.0 mm
03:52 AM 42.8°F6.0°C 42.8°F6.0°C 100% 3.5 mph SSE5.6 kmh SSE 4.6 mph7.4 kmh 29.72 in1006.4 mb - 0.00 in0.0 mm 0.00 in0.0 mm
03:42 AM 43.1°F6.2°C 43.1°F6.2°C 100% 2.3 mph S3.7 kmh S 3.5 mph5.6 kmh 29.72 in1006.4 mb - 0.00 in0.0 mm 0.00 in0.0 mm
03:32 AM 43.2°F6.2°C 43.2°F6.2°C 100% 4.6 mph SE7.4 kmh SE 5.8 mph9.3 kmh 29.72 in1006.4 mb - 0.00 in0.0 mm 0.00 in0.0 mm
03:22 AM 43.5°F6.4°C 43.5°F6.4°C 100% 3.5 mph SE5.6 kmh SE 4.6 mph7.4 kmh 29.72 in1006.4 mb - 0.00 in0.0 mm 0.00 in0.0 mm
03:12 AM 43.6°F6.4°C 43.6°F6.4°C 100% 3.5 mph SE5.6 kmh SE 5.8 mph9.3 kmh 29.72 in1006.4 mb - 0.00 in0.0 mm 0.00 in0.0 mm
03:02 AM 43.9°F6.6°C 43.9°F6.6°C 100% 5.8 mph SE9.3 kmh SE 9.2 mph14.8 kmh 29.72 in1006.4 mb - 0.00 in0.0 mm 0.00 in0.0 mm
02:52 AM 44.2°F6.8°C 44.2°F6.8°C 100% 5.8 mph SE9.3 kmh SE 8.1 mph13.0 kmh 29.72 in1006.4 mb - 0.00 in0.0 mm 0.00 in0.0 mm
02:42 AM 44.5°F6.9°C 44.5°F6.9°C 100% Calm Calm 1.2 mph1.9 kmh 29.72 in1006.4 mb - 0.00 in0.0 mm 0.00 in0.0 mm
02:32 AM 44.6°F7.0°C 44.6°F7.0°C 100% 3.5 mph E5.6 kmh E 3.5 mph5.6 kmh 29.72 in1006.4 mb - 0.00 in0.0 mm 0.00 in0.0 mm
02:22 AM 44.6°F7.0°C 44.6°F7.0°C 100% 1.2 mph SSE1.9 kmh SSE 3.5 mph5.6 kmh 29.72 in1006.4 mb - 0.00 in0.0 mm 0.00 in0.0 mm
02:12 AM 44.8°F7.1°C 44.8°F7.1°C 100% 3.5 mph SSE5.6 kmh SSE 4.6 mph7.4 kmh 29.72 in1006.4 mb - 0.00 in0.0 mm 0.00 in0.0 mm
02:02 AM 44.8°F7.1°C 44.8°F7.1°C 100% 2.3 mph ESE3.7 kmh ESE 4.6 mph7.4 kmh 29.72 in1006.4 mb - 0.00 in0.0 mm 0.00 in0.0 mm
01:52 AM 44.8°F7.1°C 44.8°F7.1°C 100% 3.5 mph SSE5.6 kmh SSE 3.5 mph5.6 kmh 29.72 in1006.4 mb - 0.00 in0.0 mm 0.00 in0.0 mm
01:42 AM 44.9°F7.2°C 44.9°F7.2°C 100% 3.5 mph SE5.6 kmh SE 3.5 mph5.6 kmh 29.72 in1006.4 mb - 0.00 in0.0 mm 0.00 in0.0 mm
01:32 AM 45.1°F7.3°C 45.1°F7.3°C 100% 4.6 mph SSE7.4 kmh SSE 11.5 mph18.5 kmh 29.71 in1006.1 mb - 0.00 in0.0 mm 0.00 in0.0 mm
01:22 AM 45.2°F7.3°C 45.2°F7.3°C 100% 4.6 mph SSE7.4 kmh SSE 6.9 mph11.1 kmh 29.71 in1006.1 mb - 0.00 in0.0 mm 0.00 in0.0 mm
01:12 AM 45.5°F7.5°C 45.5°F7.5°C 100% 3.5 mph SE5.6 kmh SE 4.6 mph7.4 kmh 29.71 in1006.1 mb - 0.00 in0.0 mm 0.00 in0.0 mm
01:02 AM 45.8°F7.7°C 45.8°F7.7°C 100% 5.8 mph SSE9.3 kmh SSE 11.5 mph18.5 kmh 29.71 in1006.1 mb - 0.00 in0.0 mm 0.00 in0.0 mm
12:52 AM 46.1°F7.8°C 46.1°F7.8°C 100% 6.9 mph ESE11.1 kmh ESE 16.1 mph25.9 kmh 29.70 in1005.8 mb - 0.00 in0.0 mm 0.00 in0.0 mm
12:42 AM 46.4°F8.0°C 46.4°F8.0°C 100% 3.5 mph E5.6 kmh E 4.6 mph7.4 kmh 29.71 in1006.1 mb - 0.00 in0.0 mm 0.00 in0.0 mm
12:32 AM 46.4°F8.0°C 46.4°F8.0°C 100% 3.5 mph SE5.6 kmh SE 10.4 mph16.7 kmh 29.70 in1005.8 mb - 0.00 in0.0 mm 0.00 in0.0 mm
12:22 AM 46.5°F8.1°C 46.5°F8.1°C 100% 5.8 mph SSE9.3 kmh SSE 6.9 mph11.1 kmh 29.70 in1005.8 mb - 0.00 in0.0 mm 0.00 in0.0 mm
12:12 AM 46.7°F8.2°C 46.7°F8.2°C 100% 4.6 mph SSE7.4 kmh SSE 6.9 mph11.1 kmh 29.70 in1005.8 mb - 0.00 in0.0 mm 0.00 in0.0 mm
12:02 AM 46.8°F8.2°C 46.8°F8.2°C 100% 3.5 mph SE5.6 kmh SE 10.4 mph16.7 kmh 29.70 in1005.8 mb - 0.00 in0.0 mm 0.00 in0.0 mm